CheckWX is a tool to help pilots better visualize weather data.  It is not intended as a substitute for an official pre-flight weather briefing.

13:19:20 UTC

CYYD METAR
Smithers Airport
Smithers, Canada
Current

1 hour ago

CYYD 211200Z AUTO 14009KT 9SM OVC060 13/08 A2979 RMK SLP091 DENSITY ALT 1900FT
Observed
Sep-21 @ 12:00 UTC
Wind
  • 140° at 9 KTS
Visibility
9 SM
Flight Rules
VFR
Cloud Levels
  • Overcast at 6,000' AGL
Temperature
13°C / 55°F
Dewpoint
C / 46°F
Humidity
72%
Altimeter
29.79" Hg
Pressure
1008.82 hPa
Previous

2 hours ago

CYYD 211100Z AUTO 12006KT 9SM OVC065 12/08 A2981 RMK SLP101 DENSITY ALT 1800FT
Observed
Sep-21 @ 11:00 UTC
Wind
  • 120° at 6 KTS
Visibility
9 SM
Flight Rules
VFR
Cloud Levels
  • Overcast at 6,500' AGL
Temperature
12°C / 54°F
Dewpoint
C / 46°F
Humidity
77%
Altimeter
29.81" Hg
Pressure
1009.52 hPa
Previous

3 hours ago

CYYD 211000Z AUTO 15007KT 9SM OVC065 13/08 A2983 RMK SLP106 DENSITY ALT 1900FT
Observed
Sep-21 @ 10:00 UTC
Wind
  • 150° at 7 KTS
Visibility
9 SM
Flight Rules
VFR
Cloud Levels
  • Overcast at 6,500' AGL
Temperature
13°C / 55°F
Dewpoint
C / 46°F
Humidity
72%
Altimeter
29.83" Hg
Pressure
1010.12 hPa